Cadillac, MI

4:36 AM EST on February 23, 2017 (GMT -0500)
Wexford County

Weather History for KCAD - April, 2013

Change the Weather History Date:

Wednesday, April 10, 2013

  Actual Average Record
Temperature  
Mean Temperature 37 °F -  
Max Temperature 41 °F 46 °F 78 °F (2011)
Min Temperature 33 °F 26 °F 8 °F (1997)
Degree Days  
Heating Degree Days 28    
Moisture  
Dew Point 32 °F    
Average Humidity 84    
Maximum Humidity 91    
Minimum Humidity 74    
Precipitation  
Precipitation 0.00 in - - ()
Sea Level Pressure  
Sea Level Pressure 30.00 in    
Wind  
Wind Speed 10 mph (NE)    
Max Wind Speed 15 mph    
Max Gust Speed 21 mph    
Visibility 9 miles    
Events Rain , Snow    
Averages and records for this station are not official NWS values.
T = Trace of Precipitation, MM = Missing Value Source: NWS Daily Summary

Daily Weather History Graph

Daily Weather History Graph

Search for Another Location

Airport or City:

Trip Planner

Search our weather history database for the weather conditions in past years. The results will help you decide how hot, cold, wet, or windy it might be!

Date:

Astronomy

Apr. 10, 2013 Rise Set
Actual Time 7:06 AM EDT 8:20 PM EDT
Civil Twilight 6:36 AM EDT 8:50 PM EDT
Nautical Twilight 6:00 AM EDT 9:26 PM EDT
Astronomical Twilight 5:22 AM EDT 10:04 PM EDT
Moon 7:00 AM EDT (4/10) 8:57 PM EDT (4/10)
Length of Visible Light 14h 13m
Length of Day
13h 14m
New Moon, 0% of the Moon is Illuminated
Apr 10
New Moon
Apr 18
First Quarter
Apr 25
Full
May 2
Last Quarter
May 9
New

Hourly Weather History & Observations

Time (EDT) Temp. Windchill Dew Point Humidity Pressure Visibility Wind Dir Wind Speed Gust Speed Precip Events Conditions
12:15 AM 36.1 °F 29.9 °F 33.1 °F 89% 30.03 in 10.0 mi NNE 8.1 mph - N/A   Overcast
12:35 AM 36.1 °F 27.7 °F 33.3 °F 89% 30.03 in 10.0 mi NNE 12.7 mph - N/A   Overcast
12:54 AM 36.1 °F 28.7 °F 33.1 °F 89% 30.02 in 10.0 mi NNE 10.4 mph - N/A   Overcast
1:15 AM 36.1 °F 28.7 °F 33.1 °F 89% 30.01 in 10.0 mi NNE 10.4 mph - N/A   Overcast
1:35 AM 36.1 °F 29.3 °F 33.1 °F 89% 30.00 in 10.0 mi NNE 9.2 mph - N/A   Overcast
1:52 AM 36.1 °F 29.9 °F 33.1 °F 89% 30.01 in 10.0 mi NE 8.1 mph - N/A   Overcast
2:15 AM 36.1 °F 29.3 °F 33.1 °F 89% 29.98 in 10.0 mi NE 9.2 mph - N/A   Overcast
2:35 AM 36.1 °F 29.9 °F 33.1 °F 89% 29.99 in 10.0 mi NE 8.1 mph - N/A   Overcast
2:55 AM 36.1 °F 29.9 °F 33.1 °F 89% 29.97 in 10.0 mi NE 8.1 mph - N/A   Overcast
3:15 AM 36.1 °F 31.4 °F 33.1 °F 89% 29.99 in 10.0 mi North 5.8 mph 9.2 mph N/A   Overcast
3:34 AM 36.1 °F 29.3 °F 33.3 °F 89% 30.08 in 4.0 mi West 9.2 mph - N/A Rain Light Rain
3:55 AM 33.8 °F 28.6 °F 31.5 °F 91% 30.03 in 3.0 mi NNE 5.8 mph - N/A Snow Light Snow
4:15 AM 33.8 °F 27.7 °F 31.5 °F 91% 30.04 in 3.0 mi North 6.9 mph - N/A   Overcast
4:35 AM 33.8 °F 25.3 °F 31.5 °F 91% 30.00 in 3.0 mi NNE 11.5 mph 17.3 mph N/A Snow Light Snow
8:02 AM 36.1 °F 27.3 °F 33.4 °F 90% 29.98 in 10.0 mi ENE 13.8 mph 17.3 mph N/A   Overcast
8:15 AM 36.1 °F 28.7 °F 33.4 °F 90% 29.98 in 10.0 mi ENE 10.4 mph - N/A Snow Light Snow
8:55 AM 36.1 °F 29.3 °F 33.4 °F 90% 30.00 in 2.0 mi NE 9.2 mph - N/A Rain Rain
9:15 AM 36.1 °F 30.6 °F 33.4 °F 90% 30.01 in 5.0 mi ENE 6.9 mph - N/A Rain Rain
9:35 AM 36.1 °F 28.7 °F 33.4 °F 90% 29.99 in 10.0 mi ENE 10.4 mph - N/A Rain Light Rain
9:55 AM 36.1 °F 27.7 °F 33.4 °F 90% 29.98 in 10.0 mi ENE 12.7 mph 18.4 mph N/A Rain Rain
10:15 AM 36.1 °F 29.3 °F 33.3 °F 89% 29.97 in 10.0 mi NE 9.2 mph 17.3 mph N/A   Overcast
10:35 AM 36.1 °F 27.7 °F 33.1 °F 89% 29.98 in 10.0 mi ENE 12.7 mph - N/A   Overcast
10:54 AM 36.1 °F 27.7 °F 32.9 °F 88% 29.98 in 10.0 mi ENE 12.7 mph 20.7 mph N/A   Overcast
11:15 AM 36.1 °F 29.3 °F 32.9 °F 88% 29.99 in 10.0 mi ENE 9.2 mph - N/A   Overcast
11:35 AM 36.1 °F 27.3 °F 32.9 °F 88% 29.97 in 10.0 mi ENE 13.8 mph - N/A   Overcast
11:54 AM 36.1 °F 26.9 °F 32.9 °F 88% 29.97 in 10.0 mi ENE 15.0 mph - N/A   Overcast
12:15 PM 36.1 °F 28.7 °F 32.9 °F 88% 29.98 in 7.0 mi NE 10.4 mph 17.3 mph N/A   Overcast
12:35 PM 36.1 °F 27.7 °F 32.9 °F 88% 29.99 in 10.0 mi NE 12.7 mph 18.4 mph N/A Rain Light Rain
1:15 PM 36.1 °F 29.9 °F 32.4 °F 86% 30.04 in 10.0 mi North 8.1 mph - N/A   Overcast
1:35 PM 36.1 °F 29.9 °F 32.2 °F 86% 30.03 in 10.0 mi NE 8.1 mph - N/A   Overcast
1:54 PM 36.1 °F 28.7 °F 32.2 °F 86% 30.03 in 7.0 mi ENE 10.4 mph - N/A Rain Rain
2:15 PM 36.1 °F 30.6 °F 32.9 °F 88% 30.03 in 7.0 mi NE 6.9 mph - N/A   Overcast
2:35 PM 38.1 °F 31.2 °F 35.1 °F 89% 30.03 in 7.0 mi ENE 10.4 mph 16.1 mph N/A   Overcast
3:15 PM 38.7 °F 31.8 °F 34.7 °F 86% 30.01 in 10.0 mi NNE 10.4 mph - N/A   Overcast
3:35 PM 38.7 °F 30.9 °F 33.3 °F 81% 29.99 in 10.0 mi NE 12.7 mph 18.4 mph N/A   Overcast
3:55 PM 38.7 °F 30.9 °F 33.1 °F 80% 29.96 in 10.0 mi NE 12.7 mph 18.4 mph N/A   Overcast
4:15 PM 38.7 °F 31.4 °F 32.9 °F 80% 29.99 in 10.0 mi NNE 11.5 mph - N/A   Overcast
4:35 PM 39.0 °F 32.3 °F 32.4 °F 77% 30.01 in 10.0 mi NNE 10.4 mph - N/A   Overcast
4:55 PM 41.2 °F 33.7 °F 33.6 °F 74% 29.98 in 10.0 mi NNE 13.8 mph 19.6 mph N/A   Overcast
5:15 PM 41.2 °F 34.1 °F 33.4 °F 74% 29.99 in 10.0 mi NNE 12.7 mph - N/A   Overcast
5:35 PM 39.4 °F 32.3 °F 32.0 °F 75% 30.00 in 10.0 mi NNE 11.5 mph - N/A   Overcast
5:55 PM 39.4 °F 33.2 °F 31.8 °F 74% 30.03 in 10.0 mi NE 9.2 mph - N/A   Overcast
6:15 PM 38.7 °F 30.9 °F 31.3 °F 75% 30.03 in 10.0 mi ENE 12.7 mph - N/A   Overcast
6:34 PM 38.7 °F 31.8 °F 31.1 °F 74% 30.02 in 10.0 mi NE 10.4 mph 17.3 mph N/A   Overcast
6:55 PM 38.7 °F 31.8 °F 31.6 °F 76% 30.01 in 10.0 mi NE 10.4 mph 16.1 mph N/A   Overcast
7:15 PM 38.7 °F 30.5 °F 31.5 °F 75% 29.99 in 10.0 mi ENE 13.8 mph 17.3 mph N/A   Overcast
7:34 PM 38.5 °F 31.6 °F 32.0 °F 78% 29.99 in 10.0 mi ENE 10.4 mph - N/A   Overcast
7:55 PM 37.4 °F 30.8 °F 31.1 °F 78% 30.00 in 10.0 mi ENE 9.2 mph - N/A   Overcast
8:15 PM 37.4 °F 29.3 °F 30.9 °F 77% 29.98 in 10.0 mi NE 12.7 mph - N/A   Overcast
8:34 PM 36.1 °F 28.7 °F 29.5 °F 77% 29.98 in 10.0 mi NE 10.4 mph 17.3 mph N/A   Mostly Cloudy
8:55 PM 36.1 °F 28.7 °F 29.3 °F 76% 29.98 in 10.0 mi NNE 10.4 mph - N/A   Clear
9:15 PM 36.1 °F 28.7 °F 29.3 °F 76% 29.99 in 10.0 mi NE 10.4 mph 16.1 mph N/A   Clear
9:34 PM 36.1 °F 28.7 °F 29.8 °F 78% 29.99 in 10.0 mi NE 10.4 mph - N/A   Scattered Clouds
9:55 PM 36.1 °F 28.7 °F 30.2 °F 79% 29.99 in 10.0 mi ENE 10.4 mph - N/A   Overcast
10:15 PM 36.1 °F 28.7 °F 30.2 °F 79% 29.99 in 10.0 mi ENE 10.4 mph - N/A   Overcast
10:34 PM 36.1 °F 29.9 °F 30.0 °F 78% 30.00 in 10.0 mi NE 8.1 mph - N/A   Overcast
10:55 PM 36.1 °F 30.6 °F 29.8 °F 78% 30.01 in 10.0 mi NE 6.9 mph - N/A   Overcast
11:15 PM 36.1 °F 29.3 °F 29.3 °F 76% 30.02 in 10.0 mi NE 9.2 mph - N/A   Overcast
11:34 PM 36.1 °F 29.9 °F 29.5 °F 77% 30.03 in 10.0 mi NE 8.1 mph - N/A   Overcast
11:55 PM 36.1 °F 29.3 °F 29.7 °F 77% 30.01 in 10.0 mi NNE 9.2 mph - N/A   Overcast